Time;durP1;ratioP1;P1;durP2;ratioP2;P2;SDS_P1;SDS_P2;PMS_P1;PMS_P2;Temp;Humidity;BMP_temperature;BMP_pressure;BME280_temperature;BME280_humidity;BME280_pressure;Samples;Min_cycle;Max_cycle;Signal;HPM_P1;HPM_P2
2024/03/04 00:00:41;;;;;;;;;;;8.00;99.90;;;;;;4960018;28;19997;-79
2024/03/04 00:03:07;;;;;;;;;;;8.00;99.90;;;;;;4959902;28;20005;-78
2024/03/04 00:05:35;;;;;;;;;;;7.90;99.90;;;;;;4959407;28;19918;-79
2024/03/04 00:08:02;;;;;;;;;;;7.90;99.90;;;;;;4975102;28;20036;-79
2024/03/04 00:10:30;;;;;;;;;;;7.90;99.90;;;;;;4920823;29;19924;-79
2024/03/04 00:12:55;;;;;;;;;;;7.90;99.90;;;;;;4930422;28;20283;-79
2024/03/04 00:15:23;;;;;;;;;;;7.90;99.90;;;;;;4957856;28;19924;-79
2024/03/04 00:17:50;;;;;;;;;;;7.90;99.90;;;;;;4934147;28;19953;-79
2024/03/04 00:20:15;;;;;;;;;;;7.90;99.90;;;;;;4976207;28;19914;-79
2024/03/04 00:22:45;;;;;;;;;;;7.90;99.90;;;;;;4947538;28;20333;-79
2024/03/04 00:25:15;;;;;;;;;;;7.90;99.90;;;;;;4974313;28;19914;-79
2024/03/04 00:27:45;;;;;;;;;;;7.90;99.90;;;;;;4927477;28;19914;-79
2024/03/04 00:30:11;;;;;;;;;;;7.90;99.90;;;;;;4942798;28;19953;-79
2024/03/04 00:32:37;;;;;;;;;;;7.90;99.90;;;;;;4948500;29;20316;-79
2024/03/04 00:35:05;;;;;;;;;;;7.80;99.90;;;;;;4939779;29;19918;-79
2024/03/04 00:37:31;;;;;;;;;;;7.80;99.90;;;;;;4936595;28;19928;-79
2024/03/04 00:39:57;;;;;;;;;;;7.80;99.90;;;;;;4978726;28;19918;-79
2024/03/04 00:42:25;;;;;;;;;;;7.70;99.90;;;;;;4951046;28;19918;-79
2024/03/04 00:44:51;;;;;;;;;;;7.80;99.90;;;;;;4924977;29;19914;-79
2024/03/04 00:47:17;;;;;;;;;;;7.80;99.90;;;;;;4938564;29;19925;-79
2024/03/04 00:49:46;;;;;;;;;;;7.80;99.90;;;;;;4955935;29;19925;-79
2024/03/04 00:52:13;;;;;;;;;;;7.80;99.90;;;;;;4970261;28;20331;-79
2024/03/04 00:54:40;;;;;;;;;;;7.80;99.90;;;;;;4946305;29;20331;-79
2024/03/04 00:57:07;;;;;;;;;;;7.80;99.90;;;;;;4940526;28;19929;-79
2024/03/04 00:59:33;;;;;;;;;;;7.80;99.90;;;;;;4947885;29;19923;-79
2024/03/04 01:02:01;;;;;;;;;;;7.80;99.90;;;;;;4927423;29;20390;-79
2024/03/04 01:04:27;;;;;;;;;;;7.80;99.90;;;;;;4937499;28;20004;-79
2024/03/04 01:06:53;;;;;;;;;;;7.80;99.90;;;;;;4952491;29;20017;-79
2024/03/04 01:09:19;;;;;;;;;;;7.70;99.90;;;;;;4946141;28;19977;-79
2024/03/04 01:11:45;;;;;;;;;;;7.70;99.90;;;;;;4963134;28;19929;-79
2024/03/04 01:14:10;;;;;;;;;;;7.70;99.90;;;;;;4945297;28;19914;-79
2024/03/04 01:16:41;;;;;;;;;;;7.60;99.90;;;;;;4969206;28;19928;-79
2024/03/04 01:19:07;;;;;;;;;;;7.60;99.90;;;;;;4958237;28;19930;-79
2024/03/04 01:21:33;;;;;;;;;;;7.60;99.90;;;;;;4962128;28;19918;-79
2024/03/04 01:23:58;;;;;;;;;;;7.60;99.90;;;;;;4948098;28;20372;-79
2024/03/04 01:26:24;;;;;;;;;;;7.60;99.90;;;;;;4965479;28;20286;-79
2024/03/04 01:28:50;;;;;;;;;;;7.70;99.90;;;;;;4962209;28;20302;-79
2024/03/04 01:31:18;;;;;;;;;;;7.60;99.90;;;;;;4948201;28;20250;-80
2024/03/04 01:33:46;;;;;;;;;;;7.50;99.90;;;;;;4965260;28;19984;-80
2024/03/04 01:36:15;;;;;;;;;;;7.40;99.90;;;;;;4963381;28;20562;-79
2024/03/04 01:38:41;;;;;;;;;;;7.40;99.90;;;;;;4947129;28;19997;-79
2024/03/04 01:41:08;;;;;;;;;;;7.40;99.90;;;;;;4963942;28;19990;-79
2024/03/04 01:43:34;;;;;;;;;;;7.30;99.90;;;;;;4966100;28;19964;-79
2024/03/04 01:45:59;;;;;;;;;;;7.20;99.90;;;;;;4970204;28;19953;-79
2024/03/04 01:48:25;;;;;;;;;;;7.20;99.90;;;;;;4954567;28;19960;-79
2024/03/04 01:50:51;;;;;;;;;;;7.20;99.90;;;;;;4951887;28;19914;-79
2024/03/04 01:53:17;;;;;;;;;;;7.20;99.90;;;;;;4965082;28;20354;-79
2024/03/04 01:55:43;;;;;;;;;;;7.10;99.90;;;;;;4980200;28;19981;-79
2024/03/04 01:58:11;;;;;;;;;;;7.10;99.90;;;;;;4963293;28;20008;-79
2024/03/04 02:00:41;;;;;;;;;;;7.10;99.90;;;;;;4964804;28;20019;-79
2024/03/04 02:03:07;;;;;;;;;;;7.10;99.90;;;;;;4961917;28;19921;-79
2024/03/04 02:05:32;;;;;;;;;;;7.10;99.90;;;;;;4952079;28;19921;-79
2024/03/04 02:07:58;;;;;;;;;;;7.00;99.90;;;;;;4980094;28;19913;-79
2024/03/04 02:10:24;;;;;;;;;;;6.90;99.90;;;;;;4980477;28;20004;-79
2024/03/04 02:12:50;;;;;;;;;;;6.90;99.90;;;;;;4978943;28;19968;-79
2024/03/04 02:15:16;;;;;;;;;;;6.90;99.90;;;;;;4963826;28;19917;-79
2024/03/04 02:17:42;;;;;;;;;;;6.90;99.90;;;;;;4962909;28;19981;-79
2024/03/04 02:20:09;;;;;;;;;;;6.90;99.90;;;;;;4979732;28;19921;-79
2024/03/04 02:22:35;;;;;;;;;;;6.90;99.90;;;;;;4996730;28;20235;-79
2024/03/04 02:25:01;;;;;;;;;;;6.90;99.90;;;;;;4967594;28;19974;-79
2024/03/04 02:27:27;;;;;;;;;;;6.80;99.90;;;;;;4977306;28;19929;-79
2024/03/04 02:29:53;;;;;;;;;;;6.80;99.90;;;;;;4978856;28;20010;-79
2024/03/04 02:32:21;;;;;;;;;;;6.90;99.90;;;;;;4938619;28;19918;-79
2024/03/04 02:34:47;;;;;;;;;;;7.00;99.90;;;;;;4980606;28;19964;-79
2024/03/04 02:37:14;;;;;;;;;;;6.80;99.90;;;;;;4974027;28;19914;-79
2024/03/04 02:39:40;;;;;;;;;;;6.70;99.90;;;;;;4929231;28;20632;-79
2024/03/04 02:42:06;;;;;;;;;;;6.70;99.90;;;;;;4946573;28;19914;-79
2024/03/04 02:44:32;;;;;;;;;;;6.70;99.90;;;;;;4980955;28;19949;-79
2024/03/04 02:46:58;;;;;;;;;;;6.70;99.90;;;;;;4961767;28;20352;-79
2024/03/04 02:49:23;;;;;;;;;;;6.60;99.90;;;;;;4980345;28;20247;-79
2024/03/04 02:51:50;;;;;;;;;;;6.70;99.90;;;;;;4970737;28;19922;-78
2024/03/04 02:54:16;;;;;;;;;;;6.70;99.90;;;;;;4979737;28;19917;-79
2024/03/04 02:56:42;;;;;;;;;;;6.70;99.90;;;;;;4961989;28;19932;-79
2024/03/04 02:59:08;;;;;;;;;;;6.80;99.90;;;;;;4971159;28;19933;-79
2024/03/04 03:01:34;;;;;;;;;;;6.70;99.90;;;;;;4978942;28;19925;-79
2024/03/04 03:03:59;;;;;;;;;;;6.80;99.90;;;;;;4970172;28;20795;-79
2024/03/04 03:06:28;;;;;;;;;;;6.80;99.90;;;;;;4958599;28;19992;-79
2024/03/04 03:08:56;;;;;;;;;;;6.70;99.90;;;;;;4973035;28;19914;-79
2024/03/04 03:11:22;;;;;;;;;;;6.70;99.90;;;;;;4967346;28;19913;-79
2024/03/04 03:13:51;;;;;;;;;;;6.70;99.90;;;;;;4988407;28;19945;-79
2024/03/04 03:16:18;;;;;;;;;;;6.70;99.90;;;;;;4963760;28;19928;-79
2024/03/04 03:18:44;;;;;;;;;;;6.70;99.90;;;;;;4947833;28;19921;-79
2024/03/04 03:21:12;;;;;;;;;;;6.70;99.90;;;;;;4969143;28;19918;-79
2024/03/04 03:23:40;;;;;;;;;;;6.60;99.90;;;;;;4947796;28;19926;-79
2024/03/04 03:26:06;;;;;;;;;;;6.60;99.90;;;;;;4932395;28;19914;-79
2024/03/04 03:28:32;;;;;;;;;;;6.50;99.90;;;;;;4919743;29;19974;-79
2024/03/04 03:31:00;;;;;;;;;;;6.40;99.90;;;;;;4953983;29;19919;-79
2024/03/04 03:33:26;;;;;;;;;;;6.30;99.90;;;;;;4947266;28;19914;-79
2024/03/04 03:35:52;;;;;;;;;;;6.30;99.90;;;;;;4944116;28;19918;-79
2024/03/04 03:38:18;;;;;;;;;;;6.30;99.90;;;;;;4935623;29;19968;-79
2024/03/04 03:40:45;;;;;;;;;;;6.30;99.90;;;;;;4942303;28;20335;-79
2024/03/04 03:43:12;;;;;;;;;;;6.30;99.90;;;;;;4939427;28;19918;-78
2024/03/04 03:45:38;;;;;;;;;;;6.20;99.90;;;;;;4942896;28;19918;-79
2024/03/04 03:48:06;;;;;;;;;;;6.10;99.90;;;;;;4974954;28;20025;-79
2024/03/04 03:50:32;;;;;;;;;;;6.20;99.90;;;;;;4944706;28;20445;-79
2024/03/04 03:52:58;;;;;;;;;;;6.10;99.90;;;;;;4938641;29;19915;-78
2024/03/04 03:55:25;;;;;;;;;;;6.00;99.90;;;;;;4954014;28;19918;-79
2024/03/04 03:57:51;;;;;;;;;;;6.10;99.90;;;;;;4936982;29;20335;-79
2024/03/04 04:00:21;;;;;;;;;;;6.10;99.90;;;;;;4953765;28;19918;-79
2024/03/04 04:02:46;;;;;;;;;;;6.10;99.90;;;;;;4959288;28;19921;-79
2024/03/04 04:05:12;;;;;;;;;;;6.10;99.90;;;;;;4944797;28;19915;-79
2024/03/04 04:07:38;;;;;;;;;;;6.00;99.90;;;;;;4940267;28;19940;-79
2024/03/04 04:10:05;;;;;;;;;;;6.00;99.90;;;;;;4941499;29;20415;-79
2024/03/04 04:12:34;;;;;;;;;;;6.00;99.90;;;;;;4956606;28;19921;-79
2024/03/04 04:15:00;;;;;;;;;;;6.00;99.90;;;;;;4954919;28;20013;-79
2024/03/04 04:17:26;;;;;;;;;;;5.90;99.90;;;;;;4959535;28;19997;-79
2024/03/04 04:19:52;;;;;;;;;;;5.80;99.90;;;;;;4975537;28;19924;-79
2024/03/04 04:22:20;;;;;;;;;;;5.80;99.90;;;;;;4960296;28;20318;-79
2024/03/04 04:24:48;;;;;;;;;;;5.80;99.90;;;;;;4979167;28;20319;-79
2024/03/04 04:27:14;;;;;;;;;;;5.80;99.90;;;;;;4947414;28;19921;-79
2024/03/04 04:29:40;;;;;;;;;;;5.70;99.90;;;;;;4962925;28;20536;-79
2024/03/04 04:32:06;;;;;;;;;;;5.70;99.90;;;;;;4962923;28;19981;-78
2024/03/04 04:34:32;;;;;;;;;;;5.70;99.90;;;;;;4962021;28;20319;-78
2024/03/04 04:36:58;;;;;;;;;;;5.70;99.90;;;;;;4978114;28;19917;-79
2024/03/04 04:39:24;;;;;;;;;;;5.70;99.90;;;;;;4946358;28;19926;-79
2024/03/04 04:41:50;;;;;;;;;;;5.60;99.90;;;;;;4955901;28;20239;-79
2024/03/04 04:44:16;;;;;;;;;;;5.60;99.90;;;;;;4978168;28;19918;-79
2024/03/04 04:46:42;;;;;;;;;;;5.50;99.90;;;;;;4962339;28;19972;-79
2024/03/04 04:49:08;;;;;;;;;;;5.50;99.90;;;;;;4946344;28;20239;-79
2024/03/04 04:51:33;;;;;;;;;;;5.50;99.90;;;;;;4972583;28;20335;-79
2024/03/04 04:53:59;;;;;;;;;;;5.40;99.90;;;;;;4962604;28;19926;-79
2024/03/04 04:56:28;;;;;;;;;;;5.60;99.90;;;;;;4985348;28;19917;-79
2024/03/04 04:58:53;;;;;;;;;;;5.50;99.90;;;;;;4967884;28;19918;-79
2024/03/04 05:01:28;;;;;;;;;;;5.50;99.90;;;;;;4970680;28;19917;-79
2024/03/04 05:03:54;;;;;;;;;;;5.50;99.90;;;;;;4951616;28;19918;-79
2024/03/04 05:06:20;;;;;;;;;;;5.50;99.90;;;;;;4948350;28;20000;-79
2024/03/04 05:08:48;;;;;;;;;;;5.60;99.90;;;;;;4962522;28;19928;-78
2024/03/04 05:11:15;;;;;;;;;;;5.60;99.90;;;;;;4972363;28;19924;-78
2024/03/04 05:13:41;;;;;;;;;;;5.60;99.90;;;;;;4965399;28;20608;-79
2024/03/04 05:16:07;;;;;;;;;;;5.50;99.90;;;;;;4965010;28;19922;-78
2024/03/04 05:18:33;;;;;;;;;;;5.50;99.90;;;;;;4950039;28;19918;-78
2024/03/04 05:21:04;;;;;;;;;;;5.50;99.90;;;;;;4977652;28;20331;-79
2024/03/04 05:23:30;;;;;;;;;;;5.50;99.90;;;;;;4965333;28;19985;-79
2024/03/04 05:25:58;;;;;;;;;;;5.40;99.90;;;;;;4958363;28;19921;-79
2024/03/04 05:28:27;;;;;;;;;;;5.50;99.90;;;;;;4942273;28;19944;-79
2024/03/04 05:30:52;;;;;;;;;;;5.40;99.90;;;;;;4937435;29;20391;-79
2024/03/04 05:33:19;;;;;;;;;;;5.40;99.90;;;;;;4913862;28;19918;-78
2024/03/04 05:35:47;;;;;;;;;;;5.50;99.90;;;;;;4958174;28;19918;-78
2024/03/04 05:38:13;;;;;;;;;;;5.40;99.90;;;;;;4920144;28;20028;-78
2024/03/04 05:40:38;;;;;;;;;;;5.40;99.90;;;;;;4920148;29;19954;-78
2024/03/04 05:43:04;;;;;;;;;;;5.40;99.90;;;;;;4920814;28;20390;-78
2024/03/04 05:45:30;;;;;;;;;;;5.40;99.90;;;;;;4942830;28;19914;-79
2024/03/04 05:47:56;;;;;;;;;;;5.30;99.90;;;;;;4930157;28;19924;-79
2024/03/04 05:50:22;;;;;;;;;;;5.40;99.90;;;;;;4946147;28;20005;-78
2024/03/04 05:52:51;;;;;;;;;;;5.40;99.90;;;;;;4946020;28;19954;-79
2024/03/04 05:55:17;;;;;;;;;;;5.40;99.90;;;;;;4947877;28;19917;-78
2024/03/04 05:57:43;;;;;;;;;;;5.40;99.90;;;;;;4958410;29;19933;-79
2024/03/04 06:00:14;;;;;;;;;;;5.50;99.90;;;;;;4958686;28;20379;-79
2024/03/04 06:02:43;;;;;;;;;;;5.50;99.90;;;;;;4961881;28;19929;-78
2024/03/04 06:05:11;;;;;;;;;;;5.40;99.90;;;;;;4961523;28;19922;-78
2024/03/04 06:07:36;;;;;;;;;;;5.40;99.90;;;;;;4943796;28;20388;-78
2024/03/04 06:10:05;;;;;;;;;;;5.40;99.90;;;;;;4928003;28;19918;-78
2024/03/04 06:12:31;;;;;;;;;;;5.40;99.90;;;;;;4945108;28;19913;-79
2024/03/04 06:14:57;;;;;;;;;;;5.50;99.90;;;;;;4945612;28;19918;-78
2024/03/04 06:17:23;;;;;;;;;;;5.40;99.90;;;;;;4961645;28;19913;-78
2024/03/04 06:19:48;;;;;;;;;;;5.50;99.90;;;;;;4958408;28;19914;-78
2024/03/04 06:22:15;;;;;;;;;;;5.40;99.90;;;;;;4945178;28;19914;-79
2024/03/04 06:24:41;;;;;;;;;;;5.40;99.90;;;;;;4978805;28;20034;-79
2024/03/04 06:27:07;;;;;;;;;;;5.40;99.90;;;;;;4976682;28;19945;-79
2024/03/04 06:29:33;;;;;;;;;;;5.50;99.90;;;;;;4979521;28;19968;-78
2024/03/04 06:32:02;;;;;;;;;;;5.50;99.90;;;;;;4964720;28;19917;-78
2024/03/04 06:34:31;;;;;;;;;;;5.50;99.90;;;;;;4942454;28;19997;-78
2024/03/04 06:36:57;;;;;;;;;;;5.50;99.90;;;;;;4971286;28;20021;-78
2024/03/04 06:39:23;;;;;;;;;;;5.50;99.90;;;;;;4960566;28;19926;-79
2024/03/04 06:41:49;;;;;;;;;;;5.50;99.90;;;;;;4965089;28;20357;-79
2024/03/04 06:44:15;;;;;;;;;;;5.50;99.90;;;;;;4964856;28;20628;-78
2024/03/04 06:46:41;;;;;;;;;;;5.60;99.90;;;;;;4969540;28;19925;-79
2024/03/04 06:49:06;;;;;;;;;;;5.60;99.90;;;;;;4970232;28;19918;-79
2024/03/04 06:51:35;;;;;;;;;;;5.60;99.90;;;;;;4979829;28;20386;-79
2024/03/04 06:54:02;;;;;;;;;;;5.50;99.90;;;;;;4964685;28;19945;-79
2024/03/04 06:56:31;;;;;;;;;;;5.70;99.90;;;;;;4964146;28;19928;-79
2024/03/04 06:58:59;;;;;;;;;;;5.70;99.90;;;;;;4980045;28;20243;-79
2024/03/04 07:01:25;;;;;;;;;;;5.70;99.90;;;;;;4979822;28;19913;-79
2024/03/04 07:03:51;;;;;;;;;;;5.70;99.90;;;;;;4958677;28;19918;-78
2024/03/04 07:06:17;;;;;;;;;;;5.80;99.90;;;;;;4952570;28;19914;-78
2024/03/04 07:08:45;;;;;;;;;;;5.80;99.90;;;;;;4963645;28;19926;-79
2024/03/04 07:11:13;;;;;;;;;;;5.80;99.90;;;;;;4962563;28;19944;-80
2024/03/04 07:13:48;;;;;;;;;;;5.80;99.90;;;;;;4980474;28;20111;-79
2024/03/04 07:16:17;;;;;;;;;;;5.80;99.90;;;;;;4980034;28;19918;-79
2024/03/04 07:18:43;;;;;;;;;;;5.80;99.90;;;;;;4964516;28;19957;-79
2024/03/04 07:21:13;;;;;;;;;;;5.90;99.90;;;;;;4955702;28;20458;-79
2024/03/04 07:23:39;;;;;;;;;;;5.90;99.90;;;;;;4963945;28;20276;-79
2024/03/04 07:26:13;;;;;;;;;;;5.90;99.90;;;;;;4940696;29;19924;-79
2024/03/04 07:28:41;;;;;;;;;;;6.00;99.90;;;;;;4958289;28;19981;-79
2024/03/04 07:31:09;;;;;;;;;;;6.00;99.90;;;;;;4944390;28;19954;-79
2024/03/04 07:33:38;;;;;;;;;;;6.00;99.90;;;;;;4959432;28;19973;-79
2024/03/04 07:36:04;;;;;;;;;;;6.00;99.90;;;;;;4959973;28;19913;-79
2024/03/04 07:38:31;;;;;;;;;;;6.10;99.90;;;;;;4973446;28;19930;-79
2024/03/04 07:40:59;;;;;;;;;;;6.10;99.90;;;;;;4954773;29;19949;-79
2024/03/04 07:43:25;;;;;;;;;;;6.10;99.90;;;;;;4924583;29;19997;-79
2024/03/04 07:45:50;;;;;;;;;;;6.10;99.90;;;;;;4935555;28;20006;-79
2024/03/04 07:48:21;;;;;;;;;;;6.20;99.90;;;;;;4953922;28;19919;-79
2024/03/04 07:50:47;;;;;;;;;;;6.20;99.90;;;;;;4940211;28;19978;-79
2024/03/04 07:53:12;;;;;;;;;;;6.20;99.90;;;;;;4973343;28;19922;-79
2024/03/04 07:55:38;;;;;;;;;;;6.30;99.90;;;;;;4935861;28;19918;-79
2024/03/04 07:58:06;;;;;;;;;;;6.30;99.90;;;;;;4958134;28;19918;-79
2024/03/04 08:00:34;;;;;;;;;;;6.40;99.90;;;;;;4942929;28;19914;-79
2024/03/04 08:03:00;;;;;;;;;;;6.40;99.90;;;;;;4926266;28;19918;-79
2024/03/04 08:05:26;;;;;;;;;;;6.50;99.90;;;;;;4939433;29;20009;-79
2024/03/04 08:07:52;;;;;;;;;;;6.50;99.90;;;;;;4942958;28;20000;-79
2024/03/04 08:10:18;;;;;;;;;;;6.50;99.90;;;;;;4974052;28;20008;-78
2024/03/04 08:12:45;;;;;;;;;;;6.60;99.90;;;;;;4957901;28;19929;-79
2024/03/04 08:15:11;;;;;;;;;;;6.60;99.90;;;;;;4975507;28;19925;-79
2024/03/04 08:17:36;;;;;;;;;;;6.70;99.90;;;;;;4972088;28;19917;-79
2024/03/04 08:20:03;;;;;;;;;;;6.70;99.90;;;;;;4961537;28;19917;-79
2024/03/04 08:22:32;;;;;;;;;;;6.70;99.90;;;;;;4935593;28;20403;-79
2024/03/04 08:24:58;;;;;;;;;;;6.80;99.90;;;;;;4939198;29;19929;-79
2024/03/04 08:27:23;;;;;;;;;;;6.80;99.90;;;;;;4939439;29;19980;-79
2024/03/04 08:29:50;;;;;;;;;;;6.90;99.90;;;;;;4923511;28;19930;-79
2024/03/04 08:32:16;;;;;;;;;;;7.00;99.90;;;;;;4958179;28;19914;-79
2024/03/04 08:34:45;;;;;;;;;;;7.00;99.90;;;;;;4941914;28;19981;-79
2024/03/04 08:37:11;;;;;;;;;;;7.00;99.90;;;;;;4942481;28;19918;-78
2024/03/04 08:39:37;;;;;;;;;;;7.10;99.90;;;;;;4951521;28;19956;-78
2024/03/04 08:42:03;;;;;;;;;;;7.10;99.90;;;;;;4934512;29;19915;-78
2024/03/04 08:44:30;;;;;;;;;;;7.10;99.90;;;;;;4939784;29;19925;-79
2024/03/04 08:46:56;;;;;;;;;;;7.10;99.90;;;;;;4927266;28;19929;-78
2024/03/04 08:49:21;;;;;;;;;;;7.20;99.90;;;;;;4942827;28;19918;-78
2024/03/04 08:51:47;;;;;;;;;;;7.20;99.90;;;;;;4936558;28;19918;-78
2024/03/04 08:54:14;;;;;;;;;;;7.20;99.90;;;;;;4939042;29;19929;-79
2024/03/04 08:56:40;;;;;;;;;;;7.30;99.90;;;;;;4923697;29;19919;-78
2024/03/04 08:59:06;;;;;;;;;;;7.30;99.90;;;;;;4924197;29;19922;-79
2024/03/04 09:01:32;;;;;;;;;;;7.30;99.90;;;;;;4917476;29;19974;-78
2024/03/04 09:03:58;;;;;;;;;;;7.40;99.90;;;;;;4939700;28;19929;-78
2024/03/04 09:06:24;;;;;;;;;;;7.40;99.90;;;;;;4926764;28;19929;-78
2024/03/04 09:08:50;;;;;;;;;;;7.40;99.90;;;;;;4958157;28;19957;-79
2024/03/04 09:11:15;;;;;;;;;;;7.50;99.90;;;;;;4940154;28;20771;-79
2024/03/04 09:13:41;;;;;;;;;;;7.50;99.90;;;;;;4942439;28;19914;-78
2024/03/04 09:16:07;;;;;;;;;;;7.60;99.90;;;;;;4963610;28;19918;-78
2024/03/04 09:18:33;;;;;;;;;;;7.60;99.90;;;;;;4955203;28;19918;-79
2024/03/04 09:21:00;;;;;;;;;;;7.70;99.90;;;;;;4939823;29;20357;-79
2024/03/04 09:23:26;;;;;;;;;;;7.70;99.90;;;;;;4957792;28;20006;-79
2024/03/04 09:25:52;;;;;;;;;;;7.70;99.90;;;;;;4944478;28;20343;-79
2024/03/04 09:28:18;;;;;;;;;;;7.80;99.90;;;;;;4947486;28;19914;-80
2024/03/04 09:30:44;;;;;;;;;;;7.80;99.90;;;;;;4943974;28;19961;-80
2024/03/04 09:33:11;;;;;;;;;;;7.80;99.90;;;;;;4946454;28;19966;-80
2024/03/04 09:35:37;;;;;;;;;;;7.90;99.90;;;;;;4943070;29;19919;-79
2024/03/04 09:38:03;;;;;;;;;;;7.90;99.90;;;;;;4928177;28;19922;-80
2024/03/04 09:40:28;;;;;;;;;;;8.00;99.90;;;;;;4939539;28;19918;-80
2024/03/04 09:42:54;;;;;;;;;;;8.00;99.90;;;;;;4925201;29;19914;-80
2024/03/04 09:45:20;;;;;;;;;;;8.00;99.90;;;;;;4909513;29;19965;-80
2024/03/04 09:47:49;;;;;;;;;;;8.20;99.90;;;;;;4940397;28;19980;-80
2024/03/04 09:50:15;;;;;;;;;;;8.10;99.90;;;;;;4976303;28;19918;-80
2024/03/04 09:52:41;;;;;;;;;;;8.00;99.90;;;;;;4946451;28;19918;-81
2024/03/04 09:55:08;;;;;;;;;;;8.10;99.90;;;;;;4960609;28;19922;-80
2024/03/04 09:57:34;;;;;;;;;;;8.10;99.90;;;;;;4942256;28;19924;-80
2024/03/04 09:59:59;;;;;;;;;;;8.10;99.90;;;;;;4963437;28;19988;-80
2024/03/04 10:02:25;;;;;;;;;;;8.10;99.90;;;;;;4929746;28;19918;-80
2024/03/04 10:04:51;;;;;;;;;;;8.20;99.90;;;;;;4923883;29;20670;-80
2024/03/04 10:07:19;;;;;;;;;;;8.20;99.90;;;;;;4936462;28;19997;-80
2024/03/04 10:09:44;;;;;;;;;;;8.30;99.90;;;;;;4931342;29;19930;-80
2024/03/04 10:12:10;;;;;;;;;;;8.30;99.90;;;;;;4964288;28;19915;-80
2024/03/04 10:14:55;;;;;;;;;;;8.40;99.90;;;;;;4958769;29;19914;-79
2024/03/04 10:17:20;;;;;;;;;;;8.40;99.90;;;;;;4953176;28;20254;-80
2024/03/04 10:19:46;;;;;;;;;;;8.60;99.90;;;;;;4946511;28;19937;-80
2024/03/04 10:22:13;;;;;;;;;;;8.60;99.90;;;;;;4977572;28;19914;-80
2024/03/04 10:24:39;;;;;;;;;;;8.70;99.90;;;;;;4965869;28;19953;-80
2024/03/04 10:27:04;;;;;;;;;;;8.80;99.90;;;;;;4965202;28;19957;-80
2024/03/04 10:29:30;;;;;;;;;;;8.90;99.90;;;;;;4964807;28;19924;-80
2024/03/04 10:31:56;;;;;;;;;;;9.00;99.90;;;;;;4953577;28;19924;-80
2024/03/04 10:34:23;;;;;;;;;;;9.00;99.90;;;;;;4974149;28;19914;-80
2024/03/04 10:36:50;;;;;;;;;;;9.10;99.90;;;;;;4968922;28;19918;-79
2024/03/04 10:39:16;;;;;;;;;;;9.20;99.90;;;;;;4962133;28;20335;-80
2024/03/04 10:41:48;;;;;;;;;;;9.30;99.90;;;;;;4945845;28;19914;-80
2024/03/04 10:44:30;;;;;;;;;;;9.30;99.90;;;;;;4961914;28;19974;-80
2024/03/04 10:46:56;;;;;;;;;;;9.40;99.90;;;;;;4961860;28;19914;-80
2024/03/04 10:49:22;;;;;;;;;;;9.40;99.90;;;;;;4945556;28;19984;-80
2024/03/04 10:51:48;;;;;;;;;;;9.50;99.90;;;;;;4962363;28;20303;-79
2024/03/04 10:54:14;;;;;;;;;;;9.50;99.90;;;;;;4948715;28;20003;-80
2024/03/04 10:56:42;;;;;;;;;;;9.50;99.90;;;;;;4965356;28;19921;-80
2024/03/04 10:59:07;;;;;;;;;;;9.50;99.90;;;;;;4947841;28;19921;-80
2024/03/04 11:01:33;;;;;;;;;;;9.60;99.90;;;;;;4954663;28;19914;-80
2024/03/04 11:04:00;;;;;;;;;;;9.60;99.90;;;;;;4992562;28;19922;-80
2024/03/04 11:06:27;;;;;;;;;;;9.60;99.90;;;;;;4961713;28;19914;-80
2024/03/04 11:08:53;;;;;;;;;;;9.60;99.90;;;;;;4968872;28;19924;-80
2024/03/04 11:11:29;;;;;;;;;;;9.60;99.90;;;;;;4947569;28;20318;-80
2024/03/04 11:14:01;;;;;;;;;;;9.60;99.90;;;;;;4950850;28;20391;-80
2024/03/04 11:16:27;;;;;;;;;;;9.60;99.90;;;;;;4945444;28;20005;-80
2024/03/04 11:19:05;;;;;;;;;;;9.60;99.90;;;;;;4980200;28;20050;-80
2024/03/04 11:21:31;;;;;;;;;;;9.60;99.90;;;;;;4958930;28;19918;-80
2024/03/04 11:23:56;;;;;;;;;;;9.60;99.90;;;;;;4946611;29;20006;-80
2024/03/04 11:26:22;;;;;;;;;;;9.70;99.90;;;;;;4913992;29;19950;-79
2024/03/04 11:28:48;;;;;;;;;;;9.70;99.90;;;;;;4956320;28;19929;-79
2024/03/04 11:31:24;;;;;;;;;;;9.70;99.90;;;;;;4943517;28;19918;-79
2024/03/04 11:33:57;;;;;;;;;;;9.80;99.90;;;;;;4975975;28;19922;-80
2024/03/04 11:36:23;;;;;;;;;;;9.80;99.90;;;;;;4962348;28;19961;-79
2024/03/04 11:38:50;;;;;;;;;;;9.80;99.90;;;;;;4944352;28;19968;-78
2024/03/04 11:41:35;;;;;;;;;;;9.80;99.90;;;;;;4942853;28;19918;-79
2024/03/04 11:44:01;;;;;;;;;;;9.80;99.90;;;;;;4975654;28;19920;-79
2024/03/04 11:46:27;;;;;;;;;;;9.80;99.90;;;;;;4959842;28;19997;-78
2024/03/04 11:48:56;;;;;;;;;;;9.80;99.90;;;;;;4960035;28;20398;-79
2024/03/04 11:51:42;;;;;;;;;;;9.80;99.90;;;;;;4975233;28;19914;-79
2024/03/04 11:54:08;;;;;;;;;;;9.70;99.90;;;;;;4944329;28;20328;-80
2024/03/04 11:56:34;;;;;;;;;;;9.80;99.90;;;;;;4960330;28;19977;-80
2024/03/04 11:58:59;;;;;;;;;;;9.70;99.90;;;;;;4959652;28;19922;-80
2024/03/04 12:01:25;;;;;;;;;;;9.80;99.90;;;;;;4959485;28;19914;-80
2024/03/04 12:03:52;;;;;;;;;;;9.80;99.90;;;;;;4959145;28;19937;-80
2024/03/04 12:06:18;;;;;;;;;;;9.90;99.90;;;;;;4927646;28;19918;-80
2024/03/04 12:08:43;;;;;;;;;;;9.80;99.90;;;;;;4958867;28;20335;-80
2024/03/04 12:11:09;;;;;;;;;;;9.80;99.90;;;;;;4959331;28;19925;-80
2024/03/04 12:13:35;;;;;;;;;;;9.90;99.90;;;;;;4975705;28;20013;-80
2024/03/04 12:16:00;;;;;;;;;;;9.90;99.90;;;;;;4975563;28;19917;-79
2024/03/04 12:18:26;;;;;;;;;;;9.90;99.90;;;;;;4938731;28;20113;-80
2024/03/04 12:20:53;;;;;;;;;;;9.90;99.90;;;;;;4923589;28;20437;-80
2024/03/04 12:23:18;;;;;;;;;;;9.90;99.90;;;;;;4932166;28;20012;-80
2024/03/04 12:25:44;;;;;;;;;;;10.00;99.90;;;;;;4976015;28;20015;-79
2024/03/04 12:28:17;;;;;;;;;;;10.00;99.90;;;;;;4959924;28;19925;-79
2024/03/04 12:30:43;;;;;;;;;;;10.00;99.90;;;;;;4944757;28;20004;-79
2024/03/04 12:33:08;;;;;;;;;;;10.00;99.90;;;;;;4944265;28;20335;-80
2024/03/04 12:35:34;;;;;;;;;;;10.00;99.90;;;;;;4932211;29;19994;-80
2024/03/04 12:38:01;;;;;;;;;;;10.00;99.90;;;;;;4909503;29;19937;-79
2024/03/04 12:40:27;;;;;;;;;;;10.10;99.90;;;;;;4948671;28;20050;-79
2024/03/04 12:42:53;;;;;;;;;;;10.10;99.90;;;;;;4925267;29;19953;-78
2024/03/04 12:45:19;;;;;;;;;;;10.10;99.90;;;;;;4940309;28;19921;-79
2024/03/04 12:47:45;;;;;;;;;;;10.10;99.90;;;;;;4958359;28;19918;-78
2024/03/04 12:50:11;;;;;;;;;;;10.10;99.90;;;;;;4925881;28;20254;-78
2024/03/04 12:52:38;;;;;;;;;;;10.10;99.90;;;;;;4948648;28;19914;-78
2024/03/04 12:55:11;;;;;;;;;;;10.00;99.90;;;;;;4944617;29;19957;-78
2024/03/04 12:57:39;;;;;;;;;;;9.90;99.90;;;;;;4942974;29;19922;-79
2024/03/04 13:00:12;;;;;;;;;;;9.90;99.90;;;;;;4958650;29;19990;-78
2024/03/04 13:02:42;;;;;;;;;;;10.00;99.90;;;;;;4930106;28;20331;-79
2024/03/04 13:05:08;;;;;;;;;;;10.00;99.90;;;;;;4955147;28;19926;-79
2024/03/04 13:07:34;;;;;;;;;;;10.00;99.90;;;;;;4962409;28;19918;-79
2024/03/04 13:10:05;;;;;;;;;;;10.00;99.90;;;;;;4962516;28;19929;-79
2024/03/04 13:12:32;;;;;;;;;;;10.00;99.90;;;;;;4963707;28;19937;-79
2024/03/04 13:14:58;;;;;;;;;;;10.10;99.90;;;;;;4962416;28;20004;-79
2024/03/04 13:17:23;;;;;;;;;;;10.00;99.90;;;;;;4946164;28;20617;-79
2024/03/04 13:19:51;;;;;;;;;;;10.00;99.90;;;;;;4927366;29;19926;-79
2024/03/04 13:22:16;;;;;;;;;;;10.00;99.90;;;;;;4952837;28;19972;-78
2024/03/04 13:24:43;;;;;;;;;;;10.00;99.90;;;;;;4947520;28;20012;-78
2024/03/04 13:27:11;;;;;;;;;;;10.00;99.90;;;;;;4944387;28;23775;-78
2024/03/04 13:29:37;;;;;;;;;;;9.90;99.90;;;;;;4978081;28;19922;-78
2024/03/04 13:32:07;;;;;;;;;;;10.00;99.90;;;;;;4945919;28;20373;-79
2024/03/04 13:34:33;;;;;;;;;;;10.00;99.90;;;;;;4930855;28;20251;-79
2024/03/04 13:36:58;;;;;;;;;;;10.00;99.90;;;;;;4961603;28;19914;-79
2024/03/04 13:39:24;;;;;;;;;;;10.00;99.90;;;;;;4937593;29;19990;-79
2024/03/04 13:41:50;;;;;;;;;;;10.00;99.90;;;;;;4961888;28;20020;-79
2024/03/04 13:44:16;;;;;;;;;;;10.00;99.90;;;;;;4957483;29;19919;-78
2024/03/04 13:46:42;;;;;;;;;;;10.00;99.90;;;;;;4942147;29;20358;-79
2024/03/04 13:49:10;;;;;;;;;;;10.00;99.90;;;;;;4926256;29;20013;-79
2024/03/04 13:51:36;;;;;;;;;;;10.00;99.90;;;;;;4942455;29;19926;-78
2024/03/04 13:54:01;;;;;;;;;;;10.00;99.90;;;;;;4936628;29;19929;-79
2024/03/04 13:56:33;;;;;;;;;;;10.10;99.90;;;;;;4924774;28;19918;-79
2024/03/04 13:59:05;;;;;;;;;;;10.10;99.90;;;;;;4961225;28;19929;-79
2024/03/04 14:01:32;;;;;;;;;;;10.10;99.90;;;;;;4948683;28;19925;-79
2024/03/04 14:03:58;;;;;;;;;;;10.00;99.90;;;;;;4931680;28;19961;-79
2024/03/04 14:06:23;;;;;;;;;;;10.00;99.90;;;;;;4944055;28;19961;-79
2024/03/04 14:08:49;;;;;;;;;;;10.00;99.90;;;;;;4910268;28;19918;-79
2024/03/04 14:11:15;;;;;;;;;;;10.10;99.90;;;;;;4978574;28;20459;-79
2024/03/04 14:13:41;;;;;;;;;;;10.10;99.90;;;;;;4945537;28;20259;-79
2024/03/04 14:16:08;;;;;;;;;;;10.10;99.90;;;;;;4945550;28;19914;-80
2024/03/04 14:18:35;;;;;;;;;;;10.10;99.90;;;;;;4945049;28;19928;-79
2024/03/04 14:21:01;;;;;;;;;;;10.10;99.90;;;;;;4940378;28;19953;-79
2024/03/04 14:23:27;;;;;;;;;;;10.10;99.90;;;;;;4961358;28;20087;-80
2024/03/04 14:25:55;;;;;;;;;;;10.20;99.90;;;;;;4949623;28;19914;-80